VSF weather

Hartness State (Springfield) Airport
Springfield, Vermont, United States

Public forecast

Using degrees Fahrenheit for public forecast. Weather courtesy of forecast.io.

METAR (pilot weather report)

Retrieved 2019/05/21 11:54 UTC (17 minutes ago):

KVSF 211154Z AUTO 28015G24KT 10SM BKN040 11/02 A2983 RMK AO2 PK WND 29030/1102 SLP100 T01060017 10133 20100 53018

TAF (pilot weather forecast)

Closest forecast is Lebanon Municipal Airport, 19.3 nm (35.8 km) NNE. Retrieved 2019/05/21 12:22 UTC (0 seconds ago):

TAF KLEB 211120Z 2112/2212 32007KT P6SM SCT030 OVC045 FM211300 31018G26KT P6SM OVC040 FM220500 VRB03KT P6SM SKC